Time;durP1;ratioP1;P1;durP2;ratioP2;P2;SDS_P1;SDS_P2;PMS_P1;PMS_P2;Temp;Humidity;BMP_temperature;BMP_pressure;BME280_temperature;BME280_humidity;BME280_pressure;Samples;Min_cycle;Max_cycle;Signal;HPM_P1;HPM_P2
2021/01/30 00:00:32;;;;;;;1.40;1.30;;;7.70;81.20;;;6.85;64.67;93042.63;5052542;28;20266;-85
2021/01/30 00:03:00;;;;;;;2.65;1.83;;;7.70;81.10;;;6.84;64.65;93041.03;5036173;28;20315;-85
2021/01/30 00:05:28;;;;;;;1.23;1.13;;;7.70;81.20;;;6.82;64.76;93040.47;5052836;28;20216;-84
2021/01/30 00:08:03;;;;;;;1.27;1.17;;;7.70;81.20;;;6.83;64.36;93036.81;5022156;28;20541;-85
2021/01/30 00:10:30;;;;;;;1.10;1.10;;;7.70;81.10;;;6.86;64.30;93051.22;5052693;28;20234;-86
2021/01/30 00:12:58;;;;;;;1.80;1.15;;;7.70;81.90;;;6.88;64.53;93054.44;5036448;28;20211;-85
2021/01/30 00:15:27;;;;;;;1.40;1.30;;;7.70;81.10;;;6.87;64.36;93060.66;5019570;28;20289;-85
2021/01/30 00:17:56;;;;;;;2.65;1.88;;;7.70;81.00;;;6.85;64.44;93062.69;5052333;28;20224;-86
2021/01/30 00:20:30;;;;;;;2.45;1.85;;;7.70;81.00;;;6.88;64.10;93054.44;5052003;28;20293;-85
2021/01/30 00:22:59;;;;;;;1.67;1.20;;;7.70;80.90;;;6.87;64.05;93069.28;5035988;28;20688;-85
2021/01/30 00:25:30;;;;;;;1.38;1.05;;;7.70;80.90;;;6.84;63.86;93051.44;5035630;28;20227;-85
2021/01/30 00:27:58;;;;;;;1.10;1.10;;;7.80;80.80;;;6.87;63.61;93058.03;5051765;28;20203;-85
2021/01/30 00:30:28;;;;;;;1.00;1.00;;;7.70;80.70;;;6.84;63.92;93048.06;5052504;28;20246;-85
2021/01/30 00:32:57;;;;;;;1.10;1.05;;;7.70;80.80;;;6.84;63.90;93042.84;5019397;28;20260;-86
2021/01/30 00:35:32;;;;;;;1.80;1.38;;;7.70;80.70;;;6.84;63.72;93045.47;5051595;28;20247;-85
2021/01/30 00:38:00;;;;;;;0.90;0.90;;;7.70;80.70;;;6.85;63.62;93045.22;5033122;28;20766;-85
2021/01/30 00:40:29;;;;;;;1.10;1.00;;;7.70;80.60;;;6.88;63.56;93044.00;5019251;28;20224;-85
2021/01/30 00:42:57;;;;;;;0.90;0.90;;;7.70;80.60;;;6.83;63.64;93036.03;5051347;28;20306;-84
2021/01/30 00:45:27;;;;;;;2.10;1.00;;;7.70;80.50;;;6.85;63.66;93049.66;5051819;28;20242;-84
2021/01/30 00:47:55;;;;;;;2.22;1.52;;;7.70;80.50;;;6.81;63.42;93033.66;5035925;28;20192;-85
2021/01/30 00:50:24;;;;;;;1.05;1.05;;;7.70;80.40;;;6.80;63.30;93047.69;5035823;28;20220;-85
2021/01/30 00:52:52;;;;;;;1.13;1.10;;;7.70;80.40;;;6.76;63.33;93043.13;5052108;28;20200;-85
2021/01/30 00:55:41;;;;;;;0.93;0.90;;;7.60;80.30;;;6.75;63.26;93042.34;5050851;28;20616;-85
2021/01/30 00:58:09;;;;;;;1.55;1.40;;;7.70;80.30;;;6.74;63.45;93038.13;5052524;28;20230;-85
2021/01/30 01:00:37;;;;;;;1.70;1.20;;;7.60;80.20;;;6.76;63.67;93040.50;5051780;28;20708;-85
2021/01/30 01:03:12;;;;;;;0.98;0.80;;;7.60;80.30;;;6.72;63.45;93040.94;5052233;28;20307;-85
2021/01/30 01:06:04;;;;;;;0.90;0.90;;;7.60;80.20;;;6.72;63.53;93043.53;5038150;28;20247;-84
2021/01/30 01:08:31;;;;;;;0.80;0.80;;;7.60;80.30;;;6.70;63.52;93044.75;5064744;28;20212;-84
2021/01/30 01:10:59;;;;;;;0.90;0.90;;;7.60;80.30;;;6.69;63.81;93043.19;5052617;28;20306;-86
2021/01/30 01:13:27;;;;;;;0.95;0.95;;;7.60;80.40;;;6.68;63.78;93042.38;5055788;28;20204;-84
2021/01/30 01:15:56;;;;;;;0.90;0.90;;;7.50;80.30;;;6.71;63.88;93041.16;5056432;28;20340;-85
2021/01/30 01:18:23;;;;;;;1.20;1.10;;;7.60;80.40;;;6.66;63.76;93020.94;5039211;28;20569;-85
2021/01/30 01:20:51;;;;;;;0.70;0.70;;;7.50;80.30;;;6.63;63.86;93013.56;5055386;28;20226;-83
2021/01/30 01:23:17;;;;;;;1.00;1.00;;;7.60;80.50;;;6.71;63.64;93022.91;5039294;28;20195;-85
2021/01/30 01:25:44;;;;;;;0.80;0.80;;;7.50;80.40;;;6.70;64.01;93026.53;5038780;28;20302;-85
2021/01/30 01:28:11;;;;;;;1.00;0.88;;;7.50;80.40;;;6.70;63.87;93026.53;5055840;28;20204;-85
2021/01/30 01:30:38;;;;;;;1.20;1.10;;;7.50;80.40;;;6.66;63.79;93031.38;5054893;28;20700;-85
2021/01/30 01:33:05;;;;;;;0.98;0.98;;;7.50;80.40;;;6.66;63.60;93030.56;5055305;28;20261;-86
2021/01/30 01:35:33;;;;;;;2.17;1.50;;;7.50;80.40;;;6.66;64.10;93030.56;5054849;28;20344;-84
2021/01/30 01:38:00;;;;;;;1.20;1.10;;;7.50;80.50;;;6.65;64.08;93040.22;5055262;28;20228;-85
2021/01/30 01:40:40;;;;;;;1.20;1.10;;;7.50;80.40;;;6.66;63.90;93033.19;5039261;28;20220;-85
2021/01/30 01:43:17;;;;;;;1.25;1.15;;;7.50;80.50;;;6.64;64.22;93032.59;5038974;28;20188;-86
2021/01/30 01:45:52;;;;;;;1.65;1.55;;;7.60;80.60;;;6.65;63.82;93031.59;5022198;28;20227;-85
2021/01/30 01:48:28;;;;;;;1.10;1.00;;;7.50;80.50;;;6.64;64.02;93036.00;5054376;28;20191;-85
2021/01/30 01:50:55;;;;;;;1.30;1.20;;;7.50;80.60;;;6.64;64.24;93050.81;5055436;28;20212;-85
2021/01/30 01:53:27;;;;;;;1.75;1.00;;;7.50;80.60;;;6.63;64.05;93046.63;5038803;28;20215;-85
2021/01/30 01:56:00;;;;;;;1.25;1.10;;;7.60;80.70;;;6.61;63.92;93041.63;5054822;28;20208;-86
2021/01/30 01:58:32;;;;;;;1.00;0.88;;;7.50;80.70;;;6.55;63.94;93038.09;5068905;28;20295;-85
2021/01/30 02:00:59;;;;;;;1.10;0.82;;;7.50;80.60;;;6.58;64.21;93039.47;5070925;28;20219;-85
2021/01/30 02:03:27;;;;;;;0.90;0.90;;;7.50;80.70;;;6.65;64.44;93042.00;5055131;28;20680;-85
2021/01/30 02:06:01;;;;;;;1.27;1.02;;;7.40;80.60;;;6.64;63.74;93033.41;5055033;28;20307;-85
2021/01/30 02:08:29;;;;;;;1.08;1.00;;;7.50;80.70;;;6.64;63.97;93049.03;5053417;28;20203;-85
2021/01/30 02:10:57;;;;;;;1.00;1.00;;;7.50;80.70;;;6.65;64.08;93035.00;5054760;28;20212;-86
2021/01/30 02:13:46;;;;;;;0.90;0.90;;;7.50;80.70;;;6.61;63.82;93028.59;5038566;28;20204;-85
2021/01/30 02:16:34;;;;;;;0.90;0.90;;;7.60;80.60;;;6.64;64.02;93033.41;5054468;28;20265;-86
2021/01/30 02:19:50;;;;;;;1.00;0.90;;;7.50;80.50;;;6.63;63.84;93010.16;5070990;28;20212;-85
2021/01/30 02:22:46;;;;;;;0.80;0.70;;;7.50;80.50;;;6.60;63.77;93024.41;5069982;28;20680;-86
2021/01/30 02:25:59;;;;;;;1.95;0.90;;;7.50;80.30;;;6.59;63.80;93020.19;5051535;28;20224;-85
2021/01/30 02:28:53;;;;;;;0.85;0.85;;;7.50;80.30;;;6.49;63.72;93007.66;5069674;28;20257;-85
2021/01/30 02:32:00;;;;;;;0.80;0.80;;;7.50;80.10;;;6.44;63.76;93022.34;5052604;28;20227;-86
2021/01/30 02:35:11;;;;;;;1.70;1.30;;;7.40;80.00;;;6.37;63.62;93023.22;5035032;28;20270;-85
2021/01/30 02:38:05;;;;;;;0.77;0.77;;;7.40;80.00;;;6.32;63.75;93023.03;5037947;28;20224;-86
2021/01/30 02:40:40;;;;;;;0.70;0.70;;;7.30;80.10;;;6.37;63.86;93012.78;5068483;28;20222;-86
2021/01/30 02:43:13;;;;;;;0.98;0.90;;;7.30;80.30;;;6.39;63.83;93026.38;5068699;28;20649;-86
2021/01/30 02:45:49;;;;;;;0.80;0.80;;;7.40;80.30;;;6.43;63.78;93015.53;5051619;28;20215;-86
2021/01/30 02:48:25;;;;;;;0.80;0.80;;;7.30;80.30;;;6.44;63.54;93022.34;5036036;28;20192;-85
2021/01/30 02:50:58;;;;;;;0.80;0.80;;;7.30;80.30;;;6.47;63.51;93007.09;5052061;28;20266;-85
2021/01/30 02:53:31;;;;;;;0.77;0.77;;;7.30;80.30;;;6.41;63.38;93000.16;5063515;28;20189;-86
2021/01/30 02:56:01;;;;;;;0.70;0.70;;;7.30;80.20;;;6.51;63.30;93021.28;5049406;28;20227;-85
2021/01/30 02:58:58;;;;;;;0.70;0.70;;;7.30;80.30;;;6.52;63.61;93014.28;5053579;28;20227;-84
2021/01/30 03:01:26;;;;;;;0.70;0.70;;;7.30;80.20;;;6.51;63.26;93021.28;5049490;28;20274;-86
2021/01/30 03:04:00;;;;;;;0.57;0.57;;;7.40;80.20;;;6.50;63.63;93009.25;5037443;28;20192;-86
2021/01/30 03:07:01;;;;;;;0.70;0.70;;;7.30;80.10;;;6.50;63.38;93019.69;5034514;28;20443;-84
2021/01/30 03:10:05;;;;;;;0.82;0.82;;;7.30;80.20;;;6.48;63.34;93016.50;5065471;28;20609;-84
2021/01/30 03:12:58;;;;;;;0.80;0.80;;;7.30;80.10;;;6.39;63.40;93010.75;5070313;28;20219;-85
2021/01/30 03:16:09;;;;;;;0.70;0.70;;;7.30;80.00;;;6.38;63.32;93009.19;5036490;28;20235;-86
2021/01/30 03:19:08;;;;;;;0.70;0.70;;;7.30;80.00;;;6.35;63.84;93011.41;5053824;28;20689;-84
2021/01/30 03:21:37;;;;;;;0.90;0.80;;;7.30;80.00;;;6.35;63.53;93006.22;5054255;28;20220;-85
2021/01/30 03:24:06;;;;;;;0.82;0.82;;;7.30;80.10;;;6.35;64.12;93014.81;5020617;28;20196;-85
2021/01/30 03:26:44;;;;;;;0.70;0.70;;;7.30;80.20;;;6.39;64.05;93023.00;5053446;28;20447;-84
2021/01/30 03:29:17;;;;;;;0.80;0.80;;;7.20;80.20;;;6.40;63.68;93024.59;5036727;28;20199;-85
2021/01/30 03:31:45;;;;;;;0.70;0.70;;;7.20;80.30;;;6.40;63.77;93035.78;5020389;28;20230;-85
2021/01/30 03:34:15;;;;;;;0.90;0.90;;;7.30;80.40;;;6.45;63.87;93034.38;5052893;28;20203;-85
2021/01/30 03:36:42;;;;;;;0.90;0.90;;;7.30;80.50;;;6.47;63.95;93027.13;5058871;28;20238;-85
2021/01/30 03:39:15;;;;;;;1.00;1.00;;;7.30;80.50;;;6.48;63.89;93021.72;5034892;28;20433;-85
2021/01/30 03:41:44;;;;;;;1.35;1.00;;;7.30;80.50;;;6.47;64.04;93021.91;5033420;28;20217;-85
2021/01/30 03:44:14;;;;;;;0.80;0.80;;;7.30;80.40;;;6.43;63.86;93015.53;5052874;28;20289;-85
2021/01/30 03:46:43;;;;;;;1.20;1.10;;;7.30;80.40;;;6.41;63.92;93020.97;5053493;28;20250;-85
2021/01/30 03:49:11;;;;;;;1.30;1.20;;;7.30;80.50;;;6.43;63.71;93025.97;5065044;28;20203;-85
2021/01/30 03:51:38;;;;;;;1.85;1.30;;;7.30;80.60;;;6.44;63.89;93024.97;5065617;28;20457;-86
2021/01/30 03:54:05;;;;;;;1.00;1.00;;;7.30;80.60;;;6.46;64.40;93022.91;5034658;28;20200;-85
2021/01/30 03:56:32;;;;;;;0.93;0.93;;;7.40;80.80;;;6.50;64.23;93032.69;5026254;28;20745;-84
2021/01/30 03:58:59;;;;;;;1.42;1.33;;;7.30;80.70;;;6.50;64.36;93032.69;5049876;28;20281;-85
2021/01/30 04:01:32;;;;;;;1.27;1.17;;;7.30;80.70;;;6.49;63.97;93006.88;5055068;28;20239;-85
2021/01/30 04:04:05;;;;;;;1.10;1.02;;;7.30;80.60;;;6.58;64.13;93005.59;5035751;28;20253;-84
2021/01/30 04:06:33;;;;;;;1.00;1.00;;;7.30;80.80;;;6.56;63.93;93005.00;5050996;28;20220;-85
2021/01/30 04:09:00;;;;;;;1.00;1.00;;;7.40;80.70;;;6.62;63.75;93005.97;5030017;28;20207;-84
2021/01/30 04:11:29;;;;;;;0.90;0.90;;;7.40;80.70;;;6.66;63.57;93009.75;5022578;28;20221;-85
2021/01/30 04:13:58;;;;;;;0.73;0.73;;;7.40;80.60;;;6.60;63.84;92998.34;5040187;28;20207;-85
2021/01/30 04:16:27;;;;;;;0.80;0.80;;;7.50;80.60;;;6.68;63.73;93003.31;5031676;28;20315;-83
2021/01/30 04:18:54;;;;;;;0.82;0.82;;;7.40;80.50;;;6.66;63.87;92991.50;5046846;28;20323;-84
2021/01/30 04:21:22;;;;;;;0.80;0.80;;;7.50;80.60;;;6.69;63.68;93002.28;5017116;28;20222;-85
2021/01/30 04:23:49;;;;;;;1.35;0.95;;;7.50;80.60;;;6.67;63.83;92993.88;5049470;28;20200;-85
2021/01/30 04:26:18;;;;;;;1.05;0.95;;;7.50;80.50;;;6.66;63.75;92983.69;5033692;28;20283;-84
2021/01/30 04:28:48;;;;;;;0.90;0.90;;;7.50;80.60;;;6.68;63.99;92990.28;5053117;28;20290;-84
2021/01/30 04:31:16;;;;;;;0.90;0.90;;;7.50;80.50;;;6.66;63.77;92984.47;5048343;28;20315;-84
2021/01/30 04:33:45;;;;;;;1.05;1.00;;;7.50;80.40;;;6.68;63.91;92974.63;5034483;28;20195;-85
2021/01/30 04:36:15;;;;;;;1.00;1.00;;;7.50;80.40;;;6.71;63.76;92983.84;5050287;28;20224;-84
2021/01/30 04:38:42;;;;;;;1.00;1.00;;;7.50;80.40;;;6.79;63.52;92998.41;5060845;28;20235;-84
2021/01/30 04:41:28;;;;;;;1.20;1.10;;;7.50;80.40;;;6.79;63.93;92995.81;5049776;28;20306;-84
2021/01/30 04:43:59;;;;;;;0.95;0.90;;;7.60;80.50;;;6.82;63.71;93000.56;5050454;28;20188;-85
2021/01/30 04:47:13;;;;;;;0.93;0.93;;;7.60;80.40;;;6.74;63.27;92988.63;5063983;28;20693;-85
2021/01/30 04:50:04;;;;;;;2.22;1.10;;;7.60;80.40;;;6.79;63.18;92993.19;5027553;28;20603;-84
2021/01/30 04:52:52;;;;;;;1.00;1.00;;;7.60;80.30;;;6.82;63.28;92988.34;5048241;28;20200;-84
2021/01/30 04:55:38;;;;;;;0.80;0.80;;;7.60;80.30;;;6.75;63.21;92992.81;5056807;28;20647;-84
2021/01/30 04:58:12;;;;;;;20.90;12.82;;;7.60;80.20;;;6.80;63.73;93000.78;5032018;28;20224;-83
2021/01/30 05:01:09;;;;;;;5.18;3.83;;;7.60;80.20;;;6.79;63.26;92982.78;5065035;28;20523;-84
2021/01/30 05:03:54;;;;;;;9.25;5.75;;;7.60;80.10;;;6.84;62.92;93001.16;5012840;28;20255;-84
2021/01/30 05:07:07;;;;;;;8.02;5.05;;;7.60;80.00;;;6.85;63.12;93005.34;5048841;28;20228;-84
2021/01/30 05:09:41;;;;;;;5.50;2.97;;;7.70;80.10;;;6.85;62.79;93000.94;5065002;28;20211;-83
2021/01/30 05:12:14;;;;;;;1.20;1.10;;;7.60;79.90;;;6.85;62.80;92990.50;5046236;28;20203;-83
2021/01/30 05:14:53;;;;;;;6.03;2.97;;;7.70;79.90;;;6.87;62.86;92995.50;5033372;28;20218;-84
2021/01/30 05:17:26;;;;;;;1.27;1.20;;;7.70;79.80;;;6.93;62.15;93006.88;5074061;28;20195;-84
2021/01/30 05:20:07;;;;;;;0.93;0.90;;;7.70;79.70;;;6.90;62.03;93002.91;5030727;28;20724;-84
2021/01/30 05:22:40;;;;;;;1.35;1.25;;;7.70;79.70;;;6.95;61.88;93018.69;5033296;28;20184;-84
2021/01/30 05:25:12;;;;;;;1.30;1.20;;;7.70;79.40;;;6.95;61.95;92992.59;5067828;28;20242;-85
2021/01/30 05:28:09;;;;;;;0.98;0.98;;;7.70;79.40;;;6.97;61.78;93001.03;5051181;28;20196;-84
2021/01/30 05:31:22;;;;;;;1.65;1.55;;;7.70;79.40;;;6.93;61.59;92996.44;5050556;28;20281;-84
2021/01/30 05:34:13;;;;;;;1.50;1.40;;;7.70;79.30;;;6.86;61.90;93031.19;5050578;28;20294;-84
2021/01/30 05:37:04;;;;;;;0.70;0.70;;;7.70;79.30;;;6.81;61.96;93002.38;5050210;28;20223;-85
2021/01/30 05:39:55;;;;;;;1.10;1.10;;;7.70;79.30;;;6.78;62.08;93007.22;5035218;28;20554;-84
2021/01/30 05:42:32;;;;;;;1.17;1.10;;;7.70;79.30;;;6.76;62.18;92998.81;5067879;28;20192;-84
2021/01/30 05:45:30;;;;;;;1.08;1.00;;;7.70;79.30;;;6.70;62.08;92995.25;5034770;28;20216;-84
2021/01/30 05:47:58;;;;;;;0.80;0.80;;;7.60;79.30;;;6.67;62.23;92993.88;5068129;28;20192;-84
2021/01/30 05:50:59;;;;;;;0.90;0.90;;;7.60;79.20;;;6.66;62.25;92992.28;5035285;28;20627;-85
2021/01/30 05:53:28;;;;;;;0.90;0.90;;;7.50;79.10;;;6.64;61.87;93006.53;5048374;28;20203;-84
2021/01/30 05:55:56;;;;;;;1.00;1.00;;;7.50;79.30;;;6.62;62.10;93001.56;5050442;28;20204;-84
2021/01/30 05:58:25;;;;;;;1.20;1.10;;;7.40;80.20;;;6.62;62.04;92988.53;5038630;28;20238;-84
2021/01/30 06:01:17;;;;;;;0.98;0.98;;;7.50;79.40;;;6.62;62.36;93000.78;5054695;28;20208;-85
2021/01/30 06:04:10;;;;;;;1.10;1.10;;;7.40;79.60;;;6.63;62.37;93013.56;5055131;28;20283;-84
2021/01/30 06:06:56;;;;;;;0.95;0.88;;;7.40;79.60;;;6.67;62.48;93016.53;5051335;28;20224;-83
2021/01/30 06:09:43;;;;;;;0.93;0.93;;;7.50;79.70;;;6.66;62.45;93010.53;5054991;28;20193;-83
2021/01/30 06:12:33;;;;;;;1.30;1.20;;;7.40;79.70;;;6.69;62.54;92999.69;5038125;28;20204;-84
2021/01/30 06:15:17;;;;;;;1.35;1.25;;;7.50;79.70;;;6.73;62.47;93008.66;5037259;28;20218;-84
2021/01/30 06:17:45;;;;;;;1.10;1.10;;;7.50;79.70;;;6.71;62.78;93030.72;5054518;28;20219;-84
2021/01/30 06:20:29;;;;;;;1.00;1.00;;;7.50;79.80;;;6.73;62.85;93007.88;5037810;28;20620;-83
2021/01/30 06:23:11;;;;;;;1.10;1.10;;;7.50;79.80;;;6.70;63.10;93013.50;5036542;28;20185;-82
2021/01/30 06:25:40;;;;;;;1.38;1.20;;;7.50;79.90;;;6.70;63.32;93014.31;5031052;28;20248;-84
2021/01/30 06:28:31;;;;;;;1.20;1.10;;;7.50;79.90;;;6.65;63.20;93011.56;5031599;28;20204;-84
2021/01/30 06:31:14;;;;;;;2.78;0.90;;;7.50;80.00;;;6.63;63.49;93021.38;5048364;28;20224;-82
2021/01/30 06:33:48;;;;;;;1.10;1.10;;;7.50;80.00;;;6.61;63.88;93023.41;5037139;28;20667;-84
2021/01/30 06:36:23;;;;;;;1.15;1.10;;;7.50;80.10;;;6.59;63.62;93017.59;5024326;28;20703;-84
2021/01/30 06:39:12;;;;;;;1.00;0.90;;;7.50;80.20;;;6.54;63.84;93002.63;5047563;28;20228;-83
2021/01/30 06:41:42;;;;;;;0.93;0.93;;;7.40;80.10;;;6.51;64.11;93018.69;5082479;28;20216;-83
2021/01/30 06:44:20;;;;;;;0.80;0.80;;;7.40;80.20;;;6.53;63.88;93018.44;5033886;28;20203;-83
2021/01/30 06:47:18;;;;;;;0.80;0.80;;;7.40;80.30;;;6.50;64.38;93045.72;5033364;28;20253;-84
2021/01/30 06:49:54;;;;;;;1.00;1.00;;;7.40;80.30;;;6.52;64.17;93016.88;5033605;28;20307;-84
2021/01/30 06:52:27;;;;;;;1.25;1.15;;;7.30;80.40;;;6.51;64.00;93026.50;5015965;28;20195;-83
2021/01/30 06:55:03;;;;;;;1.17;1.10;;;7.40;80.60;;;6.53;64.01;93032.28;5060369;28;20216;-84
2021/01/30 06:57:35;;;;;;;1.17;1.00;;;7.30;80.40;;;6.52;63.90;93037.72;5067926;28;20268;-83
2021/01/30 07:00:23;;;;;;;0.95;0.93;;;7.30;80.40;;;6.54;63.67;93044.31;5036155;28;20212;-84
2021/01/30 07:03:08;;;;;;;2.92;0.90;;;7.40;80.50;;;6.56;63.81;93028.47;5065164;28;20200;-84
2021/01/30 07:05:59;;;;;;;0.90;0.90;;;7.40;80.50;;;6.59;63.62;93041.03;5031963;28;20564;-82
2021/01/30 07:08:45;;;;;;;1.05;1.02;;;7.30;80.40;;;6.62;63.86;93032.81;5047712;28;20197;-84
2021/01/30 07:11:45;;;;;;;1.20;1.10;;;7.40;80.40;;;6.62;63.83;93030.22;5064930;28;20574;-85
2021/01/30 07:14:46;;;;;;;1.08;1.05;;;7.40;80.40;;;6.65;63.36;93032.41;5064692;28;20294;-83
2021/01/30 07:17:56;;;;;;;1.20;1.10;;;7.40;80.30;;;6.66;63.29;93025.38;5047955;28;20673;-85
2021/01/30 07:20:37;;;;;;;1.67;1.05;;;7.40;80.20;;;6.67;63.56;93029.56;5064721;28;20261;-82
2021/01/30 07:24:02;;;;;;;1.05;1.05;;;7.50;80.30;;;6.74;63.38;93025.09;5037136;28;20651;-83
2021/01/30 07:26:52;;;;;;;1.05;1.05;;;7.50;80.20;;;6.78;62.79;93041.88;5043858;28;20228;-84
2021/01/30 07:30:05;;;;;;;1.00;1.00;;;7.50;80.00;;;6.79;62.70;93020.03;5057242;28;20215;-85
2021/01/30 07:32:48;;;;;;;1.95;0.95;;;7.50;80.00;;;6.84;62.45;93016.78;5020874;28;20634;-85
2021/01/30 07:35:28;;;;;;;0.98;0.98;;;7.50;80.00;;;6.87;62.57;93001.53;5031913;28;20235;-83
2021/01/30 07:38:14;;;;;;;1.10;1.10;;;7.60;80.10;;;6.93;62.57;92992.03;5048767;28;20630;-85
2021/01/30 07:40:55;;;;;;;1.10;1.10;;;7.60;80.00;;;6.99;62.21;92993.75;5064974;28;20246;-84
2021/01/30 07:43:47;;;;;;;1.20;1.10;;;7.70;79.90;;;7.10;62.23;93005.28;5048802;28;20219;-85
2021/01/30 07:46:35;;;;;;;1.40;1.30;;;7.70;79.90;;;7.16;61.88;92995.81;5047736;28;20470;-84
2021/01/30 07:49:13;;;;;;;1.23;1.10;;;7.80;79.60;;;7.20;61.05;93010.78;5047644;28;20196;-85
2021/01/30 07:51:45;;;;;;;0.98;0.98;;;7.80;79.40;;;7.26;61.76;92996.06;5048438;28;20226;-84
2021/01/30 07:54:13;;;;;;;1.08;1.00;;;7.90;79.40;;;7.30;61.22;92991.22;5081194;28;20200;-84
2021/01/30 07:57:08;;;;;;;1.73;1.00;;;7.90;79.30;;;7.32;61.16;93003.06;5036198;28;20220;-84
2021/01/30 07:59:55;;;;;;;1.20;1.10;;;7.90;79.10;;;7.36;60.83;93003.38;5036943;28;20212;-83
2021/01/30 08:02:56;;;;;;;1.30;1.20;;;8.00;78.90;;;7.39;60.98;93021.22;5056597;28;20184;-85
2021/01/30 08:05:36;;;;;;;1.73;1.15;;;8.00;79.00;;;7.41;60.72;93024.41;5049258;28;20211;-84
2021/01/30 08:08:27;;;;;;;1.67;1.05;;;8.00;78.90;;;7.43;60.76;92998.88;5063821;28;20208;-83
2021/01/30 08:11:20;;;;;;;1.20;1.10;;;8.00;78.70;;;7.51;60.70;93014.25;5057552;28;20220;-85
2021/01/30 08:14:13;;;;;;;1.17;1.08;;;8.10;78.90;;;7.60;60.07;93009.50;5019899;28;20209;-85
2021/01/30 08:17:17;;;;;;;0.93;0.93;;;8.20;78.90;;;7.68;60.15;93024.09;5050996;28;20376;-84
2021/01/30 08:20:15;;;;;;;2.15;1.10;;;8.20;78.70;;;7.75;59.08;93023.97;5053222;28;20288;-83
2021/01/30 08:22:58;;;;;;;1.20;1.10;;;8.30;78.20;;;7.79;59.33;93022.53;5031036;28;20204;-84
2021/01/30 08:25:57;;;;;;;1.17;1.10;;;8.30;78.30;;;7.84;59.65;93014.84;5051686;28;20617;-84
2021/01/30 08:28:40;;;;;;;1.05;1.05;;;8.30;78.30;;;7.88;58.79;93008.16;5030748;28;20655;-84
2021/01/30 08:31:32;;;;;;;1.17;1.08;;;8.40;78.00;;;7.91;58.71;93038.22;5038371;28;20590;-85
2021/01/30 08:34:19;;;;;;;1.15;1.08;;;8.50;78.00;;;7.91;59.13;92992.06;5036902;28;20276;-84
2021/01/30 08:36:50;;;;;;;1.75;1.05;;;8.50;77.90;;;7.98;58.21;93008.41;5058366;28;20211;-85
2021/01/30 08:39:28;;;;;;;1.02;1.02;;;8.50;77.80;;;8.03;58.50;93007.72;5035282;28;20221;-84
2021/01/30 08:42:19;;;;;;;1.00;1.00;;;8.60;77.80;;;8.07;58.64;92995.84;5036008;28;20202;-84
2021/01/30 08:45:05;;;;;;;0.98;0.98;;;8.60;77.70;;;8.09;58.14;92995.59;5035348;28;20219;-84
2021/01/30 08:47:36;;;;;;;0.90;0.90;;;8.60;77.30;;;8.14;58.16;92985.28;5034902;28;20241;-83
2021/01/30 08:50:40;;;;;;;1.13;1.02;;;8.70;77.50;;;8.20;58.20;93001.88;5035404;28;20212;-85
2021/01/30 08:53:15;;;;;;;2.17;1.50;;;8.70;77.50;;;8.25;58.52;92975.88;5032034;28;20272;-84
2021/01/30 08:55:45;;;;;;;1.40;1.30;;;8.70;77.40;;;8.40;57.77;92983.25;5032089;28;20224;-85
2021/01/30 08:58:36;;;;;;;0.93;0.90;;;8.90;77.60;;;8.53;57.25;92988.31;5061300;28;20481;-84
2021/01/30 09:01:10;;;;;;;1.50;1.20;;;8.90;77.20;;;8.65;56.70;92999.59;5066571;28;20240;-85
2021/01/30 09:03:49;;;;;;;2.50;1.10;;;9.00;77.00;;;8.75;57.27;92985.94;5052033;28;20225;-84
2021/01/30 09:06:40;;;;;;;0.93;0.93;;;9.10;77.10;;;8.87;55.98;92999.00;5066899;28;20254;-85
2021/01/30 09:09:13;;;;;;;1.08;1.00;;;9.20;76.80;;;8.95;56.90;92996.03;5084745;28;20245;-85
2021/01/30 09:11:47;;;;;;;1.02;1.00;;;9.20;77.90;;;9.08;55.87;92992.41;5034246;28;20223;-84
2021/01/30 09:14:17;;;;;;;1.27;1.10;;;9.30;76.50;;;9.16;55.39;93003.53;5051642;28;20234;-83
2021/01/30 09:17:17;;;;;;;1.08;1.00;;;9.40;76.30;;;9.19;55.21;93005.66;5067627;28;20751;-84
2021/01/30 09:20:05;;;;;;;1.10;1.10;;;9.50;75.80;;;9.11;54.83;92997.16;5052058;28;20234;-85
2021/01/30 09:22:35;;;;;;;1.25;1.15;;;9.60;75.50;;;9.06;55.55;93004.91;5066702;28;20204;-82
2021/01/30 09:25:33;;;;;;;1.02;1.00;;;9.60;75.50;;;8.94;55.16;92993.66;5084741;28;20286;-84
2021/01/30 09:28:20;;;;;;;1.08;0.98;;;9.60;75.50;;;8.92;55.89;92993.09;5050667;28;20454;-85
2021/01/30 09:31:06;;;;;;;1.05;0.98;;;9.50;75.40;;;8.93;55.74;93000.69;5034899;28;20227;-84
2021/01/30 09:33:36;;;;;;;1.15;1.00;;;9.50;75.40;;;8.99;56.28;93000.81;5035532;28;20197;-85
2021/01/30 09:36:31;;;;;;;0.90;0.90;;;9.50;75.50;;;9.07;56.09;93010.91;5039642;28;20236;-84
2021/01/30 09:38:59;;;;;;;1.13;1.08;;;9.60;75.70;;;9.09;55.55;93007.06;5039343;28;20262;-85
2021/01/30 09:41:34;;;;;;;1.15;0.88;;;9.60;75.50;;;9.13;55.43;92999.56;5055157;28;20629;-85
2021/01/30 09:44:18;;;;;;;1.13;0.90;;;9.60;75.50;;;9.11;55.32;92994.53;5055549;28;20231;-85
2021/01/30 09:46:55;;;;;;;0.80;0.80;;;9.70;75.60;;;9.11;55.63;93006.81;5037875;28;20295;-85
2021/01/30 09:49:40;;;;;;;1.42;0.90;;;9.60;75.50;;;9.13;55.93;93002.94;5055136;28;20286;-85
2021/01/30 09:52:08;;;;;;;1.30;1.20;;;9.70;75.60;;;9.19;55.48;92993.41;5055220;28;20195;-85
2021/01/30 09:54:36;;;;;;;1.00;1.00;;;9.70;75.60;;;9.23;55.53;93002.38;5037222;28;20196;-85
2021/01/30 09:57:16;;;;;;;2.30;0.90;;;9.70;75.60;;;9.22;55.06;93000.78;5038393;28;20281;-86
2021/01/30 09:59:43;;;;;;;1.67;1.10;;;9.70;75.60;;;9.21;54.99;93012.25;5054943;28;20322;-85
2021/01/30 10:02:20;;;;;;;0.80;0.80;;;9.80;75.50;;;9.20;54.91;93002.81;5038939;28;20223;-86
2021/01/30 10:05:09;;;;;;;0.85;0.85;;;9.70;75.60;;;9.28;55.22;92999.84;5038300;28;20314;-85
2021/01/30 10:07:37;;;;;;;1.00;0.90;;;9.80;75.70;;;9.29;54.76;93024.22;5079596;28;20204;-86
2021/01/30 10:10:24;;;;;;;0.93;0.93;;;9.80;75.60;;;9.37;54.81;93017.81;5054725;28;20250;-85
2021/01/30 10:12:53;;;;;;;0.95;0.90;;;9.90;75.70;;;9.41;54.06;93011.88;5071266;28;20649;-86
2021/01/30 10:15:36;;;;;;;0.90;0.90;;;9.90;75.00;;;9.38;54.34;93006.31;5037562;28;20216;-85
2021/01/30 10:18:10;;;;;;;0.90;0.90;;;9.90;75.00;;;9.37;54.72;92999.50;5053817;28;20222;-86
2021/01/30 10:20:52;;;;;;;0.90;0.90;;;9.90;74.90;;;9.38;54.84;92995.84;5038107;28;20774;-85
2021/01/30 10:23:39;;;;;;;1.02;0.90;;;9.90;75.00;;;9.35;55.17;92986.66;5054690;28;20204;-85
2021/01/30 10:26:29;;;;;;;0.70;0.70;;;9.90;75.10;;;9.37;53.77;93013.34;5071070;28;20220;-87
2021/01/30 10:29:06;;;;;;;0.80;0.80;;;9.90;74.60;;;9.35;55.05;92999.72;5054727;28;20230;-85
2021/01/30 10:31:57;;;;;;;1.17;1.08;;;9.90;74.80;;;9.31;54.92;92980.28;5042664;28;20207;-84
2021/01/30 10:34:49;;;;;;;0.80;0.80;;;10.00;73.60;;;9.43;55.39;92990.72;5021950;28;20257;-86
2021/01/30 10:37:46;;;;;;;1.52;1.10;;;9.90;75.00;;;9.39;54.55;92985.16;5071852;28;20719;-86
2021/01/30 10:40:32;;;;;;;1.33;1.02;;;10.00;73.40;;;9.46;54.71;92977.19;5044888;28;20223;-86
2021/01/30 10:43:08;;;;;;;1.15;0.90;;;10.00;73.50;;;9.50;54.23;92993.22;5070000;28;20291;-85
2021/01/30 10:45:43;;;;;;;1.08;1.00;;;10.00;73.40;;;9.48;54.51;92980.34;5054326;28;20246;-87
2021/01/30 10:48:14;;;;;;;0.90;0.90;;;10.00;73.50;;;9.53;54.18;92996.16;5054360;28;20711;-86
2021/01/30 10:50:45;;;;;;;0.88;0.88;;;10.00;73.50;;;9.57;53.52;92973.72;5037845;28;20236;-86
2021/01/30 10:53:37;;;;;;;1.13;0.80;;;10.10;73.00;;;9.52;54.03;92988.53;5038648;28;20298;-86
2021/01/30 10:56:26;;;;;;;0.90;0.90;;;10.10;73.30;;;9.50;54.39;93033.25;5033776;28;20224;-86
2021/01/30 10:58:56;;;;;;;0.95;0.95;;;10.10;73.10;;;9.27;52.43;93047.97;5062399;28;20216;-85
2021/01/30 11:01:31;;;;;;;1.02;1.02;;;10.10;71.20;;;8.74;52.24;93073.22;5037147;28;20256;-86
2021/01/30 11:04:05;;;;;;;0.98;0.98;;;9.90;72.00;;;8.09;52.98;93066.09;5036538;28;20212;-86
2021/01/30 11:06:36;;;;;;;1.90;1.10;;;9.70;71.60;;;7.51;54.84;93073.44;5047353;28;20208;-87
2021/01/30 11:09:11;;;;;;;1.10;1.00;;;9.00;71.80;;;7.01;56.34;93069.94;5070211;28;20210;-86
2021/01/30 11:11:38;;;;;;;1.15;1.15;;;8.70;72.70;;;6.64;57.47;93085.50;5070719;28;20616;-86
2021/01/30 11:14:26;;;;;;;1.00;1.00;;;8.40;73.50;;;6.26;58.16;93088.97;5037701;28;20192;-88
2021/01/30 11:16:53;;;;;;;0.93;0.93;;;8.00;74.00;;;5.93;58.65;93088.13;5068788;28;20283;-87
2021/01/30 11:19:33;;;;;;;1.10;1.10;;;7.60;74.20;;;5.60;59.51;93085.66;5053743;28;20216;-86
2021/01/30 11:22:22;;;;;;;1.10;1.00;;;7.20;74.70;;;5.34;60.84;93082.16;5069834;28;20200;-86
2021/01/30 11:25:11;;;;;;;1.58;1.30;;;6.90;75.30;;;5.16;61.32;93095.78;5037104;28;20216;-85